MDT,Max TemperatureF,Mean TemperatureF,Min TemperatureF,Max Dew PointF,MeanDew PointF,Min DewpointF,Max Humidity, Mean Humidity, Min Humidity, Max Sea Level PressureIn, Mean Sea Level PressureIn, Min Sea Level PressureIn, Max VisibilityMiles, Mean VisibilityMiles, Min VisibilityMiles, Max Wind SpeedMPH, Mean Wind SpeedMPH, Max Gust SpeedMPH,PrecipitationIn, CloudCover, Events, WindDirDegrees
2013-5-1,56,46,35,39,27,5,92,52,12,30.37,30.06,29.74,10,10,5,30,13,39,0.11,4,Rain,328
2013-5-2,55,41,26,20,14,5,75,44,13,30.56,30.46,30.38,10,10,10,17,6,24,0.00,0,,277
2013-5-3,68,48,28,20,13,-1,63,35,7,30.37,30.11,29.90,10,10,10,20,7,26,0.00,0,,72
2013-5-4,73,55,36,27,16,8,52,31,9,29.89,29.81,29.73,10,10,10,30,8,40,0.00,0,,122
2013-5-5,71,60,48,28,24,17,42,28,14,29.85,29.81,29.74,10,10,10,25,9,35,0.00,2,,137
2013-5-6,66,55,43,45,37,28,92,59,26,30.04,29.89,29.78,10,10,7,17,7,25,0.03,6,Rain-Thunderstorm,74
2013-5-7,56,48,39,45,41,37,100,76,51,30.01,29.97,29.92,10,10,10,21,4,26,0.06,4,Rain,183
2013-5-8,54,47,39,42,39,35,96,73,50,30.05,29.99,29.91,10,10,9,18,7,23,0.09,5,Rain,7
2013-5-9,64,53,42,45,41,36,100,68,36,30.16,30.08,29.95,10,10,7,24,5,33,0.20,5,Rain,324
2013-5-10,68,53,37,39,36,32,92,60,28,30.20,30.12,30.06,10,10,10,23,8,29,0.01,2,Rain,137
2013-5-11,74,56,38,34,30,21,79,47,14,30.29,30.21,30.13,10,10,10,15,6,24,0.00,0,,157
2013-5-12,78,64,49,37,33,27,56,36,16,30.20,30.13,30.04,10,10,10,16,7,18,0.00,1,,99
2013-5-13,84,66,47,38,34,26,61,37,13,30.15,30.06,29.96,10,10,10,24,9,30,0.00,0,,125
2013-5-14,86,68,50,41,35,26,56,34,12,30.02,29.90,29.78,10,10,10,22,8,28,0.00,1,,129
2013-5-15,82,67,52,49,40,33,55,37,18,29.97,29.80,29.70,10,10,10,29,7,38,0.05,2,Rain-Thunderstorm,118
2013-5-16,84,65,45,40,30,21,62,37,11,29.84,29.76,29.69,10,10,10,24,8,29,0.00,0,,177
2013-5-17,82,68,53,29,18,8,33,20,7,29.94,29.73,29.63,10,10,10,26,13,36,0.00,0,,201
2013-5-18,74,60,45,36,30,25,56,36,16,30.01,29.83,29.73,10,10,10,32,11,45,0.00,3,Thunderstorm,177
2013-5-19,64,53,42,37,34,29,65,47,29,29.90,29.86,29.82,10,10,10,23,8,31,0.02,4,Rain,141
2013-5-20,66,52,38,38,34,30,76,51,26,30.05,29.95,29.88,10,10,10,25,8,33,0.00,3,,62
2013-5-21,72,56,40,37,33,28,79,51,22,30.03,29.90,29.78,10,10,10,14,7,18,0.00,1,,76
2013-5-22,83,65,46,34,26,16,56,33,9,29.79,29.69,29.61,10,10,9,23,10,29,0.00,1,,176
2013-5-23,86,69,52,30,19,10,35,21,6,29.95,29.68,29.60,10,10,7,35,14,46,0.00,0,,173
2013-5-24,83,69,54,26,17,12,28,18,7,30.03,29.81,29.70,10,10,6,29,13,36,0.00,0,,211
2013-5-25,86,67,47,26,20,9,39,23,6,29.90,29.82,29.75,10,10,10,24,9,31,0.00,0,,185
2013-5-26,84,69,53,30,18,12,25,16,7,29.85,29.79,29.71,10,10,10,24,10,32,0.00,0,,167
2013-5-27,81,66,51,27,17,13,29,19,8,29.80,29.72,29.63,10,10,10,21,9,26,0.00,0,,157
2013-5-28,81,66,50,42,24,17,66,38,9,29.82,29.59,29.46,10,10,10,28,14,37,T,1,,207
2013-5-29,69,57,44,45,35,23,93,57,20,29.76,29.65,29.59,10,10,10,21,6,25,0.01,4,Rain,329
2013-5-30,75,61,46,34,25,16,58,35,11,29.90,29.77,29.70,10,10,5,28,9,33,0.00,3,,302
2013-5-31,72,58,44,29,19,6,46,28,10,30.08,29.91,29.83,10,10,4,25,11,33,0.00,1,,5